createdAt,value
2023-02-06T00:02:36.680Z,67.82
2023-02-06T00:05:39.703Z,67.71
2023-02-06T00:08:42.727Z,66.98
2023-02-06T00:11:45.746Z,66.76
2023-02-06T00:14:48.363Z,67.10
2023-02-06T00:17:51.316Z,67.62
2023-02-06T00:20:54.011Z,66.37
2023-02-06T00:23:59.540Z,67.98
2023-02-06T00:27:02.562Z,68.01
2023-02-06T00:30:06.557Z,68.18
2023-02-06T00:33:09.245Z,66.21
2023-02-06T00:36:12.225Z,67.57
2023-02-06T00:39:14.931Z,67.84
2023-02-06T00:42:17.854Z,68.00
2023-02-06T00:45:21.001Z,69.50
2023-02-06T00:48:24.947Z,69.09
2023-02-06T00:51:27.585Z,68.26
2023-02-06T00:54:30.578Z,68.16
2023-02-06T00:57:33.226Z,67.59
2023-02-06T01:00:36.471Z,68.74
2023-02-06T01:03:39.314Z,68.43
2023-02-06T01:06:44.500Z,68.18
2023-02-06T01:09:48.334Z,67.34
2023-02-06T01:12:51.414Z,68.40
2023-02-06T01:15:54.088Z,68.48
2023-02-06T01:18:57.687Z,68.28
2023-02-06T01:22:00.348Z,67.41
2023-02-06T01:25:04.635Z,69.04
2023-02-06T01:28:07.571Z,68.41
2023-02-06T01:31:19.286Z,69.03
2023-02-06T01:34:21.934Z,69.08
2023-02-06T01:37:24.874Z,68.08
2023-02-06T01:40:27.707Z,68.96
2023-02-06T01:43:35.661Z,67.76
2023-02-06T01:46:39.748Z,68.11
2023-02-06T01:49:49.661Z,66.86
2023-02-06T01:52:52.548Z,68.02
2023-02-06T01:55:56.894Z,67.96
2023-02-06T01:59:02.989Z,68.54
2023-02-06T02:02:06.482Z,68.37
2023-02-06T02:05:11.740Z,67.68
2023-02-06T02:08:30.799Z,68.21
2023-02-06T02:11:37.390Z,68.64
2023-02-06T02:14:43.753Z,67.65
2023-02-06T02:17:51.829Z,68.96
2023-02-06T02:21:26.065Z,68.22
2023-02-06T02:24:41.102Z,68.19
2023-02-06T02:28:21.764Z,68.64
2023-02-06T02:31:52.279Z,67.96
2023-02-06T02:35:07.523Z,68.07
2023-02-06T02:38:46.684Z,67.50
2023-02-06T02:41:59.006Z,67.62
2023-02-06T02:45:13.450Z,69.06
2023-02-06T02:48:23.587Z,68.67
2023-02-06T02:51:26.976Z,68.75
2023-02-06T02:54:29.678Z,68.16
2023-02-06T02:57:32.791Z,66.53
2023-02-06T03:00:44.859Z,67.56
2023-02-06T03:03:50.368Z,67.15
2023-02-06T03:07:20.980Z,66.98
2023-02-06T03:10:39.859Z,68.24
2023-02-06T03:13:47.381Z,68.45
2023-02-06T03:16:59.713Z,68.06
2023-02-06T03:20:06.295Z,66.22
2023-02-06T03:23:15.766Z,66.71
2023-02-06T03:26:22.402Z,68.12
2023-02-06T03:29:28.182Z,68.69
2023-02-06T03:32:37.378Z,69.77
2023-02-06T03:35:40.529Z,68.20
2023-02-06T03:38:46.022Z,68.85
2023-02-06T03:41:49.790Z,67.51
2023-02-06T03:45:01.766Z,67.96
2023-02-06T03:48:14.920Z,68.71
2023-02-06T03:51:30.361Z,67.90
2023-02-06T03:54:37.377Z,68.00
2023-02-06T03:57:43.205Z,68.41
2023-02-06T04:00:48.159Z,68.06
2023-02-06T04:03:51.510Z,67.67
2023-02-06T04:06:55.058Z,67.42
2023-02-06T04:09:58.113Z,66.91
2023-02-06T04:13:01.003Z,67.72
2023-02-06T04:16:04.133Z,69.92
2023-02-06T04:19:06.876Z,67.97
2023-02-06T04:22:12.987Z,67.73
2023-02-06T04:25:15.943Z,66.90
2023-02-06T04:28:19.086Z,67.21
2023-02-06T04:31:22.145Z,67.01
2023-02-06T04:34:25.050Z,68.18
2023-02-06T04:37:27.737Z,68.77
2023-02-06T04:40:31.017Z,69.38
2023-02-06T04:43:34.339Z,67.41
2023-02-06T04:46:37.322Z,68.31
2023-02-06T04:49:39.965Z,69.18
2023-02-06T04:52:43.122Z,68.66
2023-02-06T04:55:45.811Z,68.11
2023-02-06T04:58:48.664Z,70.22
2023-02-06T05:01:51.324Z,69.70
2023-02-06T05:04:54.250Z,71.51
2023-02-06T05:07:56.872Z,67.90
2023-02-06T05:10:59.791Z,67.59
2023-02-06T05:14:02.442Z,68.90
2023-02-06T05:17:05.306Z,68.67
2023-02-06T05:20:08.781Z,68.70
2023-02-06T05:23:12.122Z,68.16
2023-02-06T05:26:14.831Z,69.72
2023-02-06T05:29:17.673Z,69.39
2023-02-06T05:32:20.302Z,71.06
2023-02-06T05:35:23.677Z,71.27
2023-02-06T05:38:26.277Z,71.49
2023-02-06T05:41:29.162Z,73.29
2023-02-06T05:44:32.077Z,70.33
2023-02-06T05:47:35.098Z,70.20
2023-02-06T05:50:38.803Z,70.26
2023-02-06T05:53:50.237Z,69.92
2023-02-06T05:56:52.951Z,71.53
2023-02-06T05:59:55.961Z,70.48
2023-02-06T06:02:58.742Z,69.28
2023-02-06T06:06:02.089Z,68.71
2023-02-06T06:09:04.998Z,68.48
2023-02-06T06:12:08.125Z,70.70
2023-02-06T06:15:10.829Z,70.09
2023-02-06T06:18:13.722Z,69.93
2023-02-06T06:21:16.461Z,70.72
2023-02-06T06:24:19.314Z,69.57
2023-02-06T06:27:22.090Z,70.05
2023-02-06T06:30:25.234Z,69.98
2023-02-06T06:33:28.012Z,70.05
2023-02-06T06:36:31.078Z,69.25
2023-02-06T06:39:33.703Z,69.04
2023-02-06T06:42:37.468Z,68.64
2023-02-06T06:45:40.297Z,67.67
2023-02-06T06:48:43.497Z,67.39
2023-02-06T06:51:46.154Z,67.61
2023-02-06T06:54:50.396Z,67.08
2023-02-06T06:57:54.101Z,67.23
2023-02-06T07:00:57.560Z,67.87
2023-02-06T07:04:00.885Z,66.28
2023-02-06T07:07:03.818Z,68.75
2023-02-06T07:10:07.658Z,66.38
2023-02-06T07:13:10.646Z,67.21
2023-02-06T07:16:13.809Z,64.42
2023-02-06T07:19:16.802Z,65.44
2023-02-06T07:22:20.198Z,66.65
2023-02-06T07:25:23.423Z,66.53
2023-02-06T07:28:26.122Z,65.92
2023-02-06T07:31:29.322Z,63.49
2023-02-06T07:34:31.961Z,64.58
2023-02-06T07:37:34.906Z,62.56
2023-02-06T07:40:45.208Z,63.21
2023-02-06T07:43:49.578Z,63.03
2023-02-06T07:46:52.951Z,61.28
2023-02-06T07:49:56.029Z,61.05
2023-02-06T07:52:59.006Z,61.29
2023-02-06T07:56:02.313Z,61.53
2023-02-06T07:59:05.589Z,61.00
2023-02-06T08:02:11.434Z,62.18
2023-02-06T08:05:15.558Z,62.46
2023-02-06T08:08:18.190Z,60.52
2023-02-06T08:11:25.474Z,61.19
2023-02-06T08:14:29.057Z,61.12
2023-02-06T08:17:32.038Z,60.94
2023-02-06T08:20:35.109Z,61.79
2023-02-06T08:23:38.731Z,60.08
2023-02-06T08:26:41.477Z,60.56
2023-02-06T08:29:44.892Z,62.05
2023-02-06T08:32:47.525Z,59.78
2023-02-06T08:35:50.725Z,59.11
2023-02-06T08:38:53.991Z,58.27
2023-02-06T08:41:56.990Z,59.10
2023-02-06T08:44:59.653Z,58.81
2023-02-06T08:48:02.544Z,59.30
2023-02-06T08:51:07.539Z,58.90
2023-02-06T08:54:16.974Z,58.24
2023-02-06T08:57:20.358Z,58.76
2023-02-06T09:00:25.525Z,58.39
2023-02-06T09:03:28.597Z,60.26
2023-02-06T09:06:33.015Z,59.50
2023-02-06T09:09:35.687Z,58.08
2023-02-06T09:12:39.740Z,56.74
2023-02-06T09:15:43.268Z,56.49
2023-02-06T09:18:46.988Z,56.50
2023-02-06T09:21:50.020Z,55.24
2023-02-06T09:24:53.063Z,55.61
2023-02-06T09:27:57.158Z,55.64
2023-02-06T09:31:01.630Z,56.28
2023-02-06T09:34:07.559Z,56.16
2023-02-06T09:37:10.476Z,55.89
2023-02-06T09:40:19.185Z,55.23
2023-02-06T09:43:22.405Z,55.01
2023-02-06T09:46:31.637Z,53.75
2023-02-06T09:49:47.920Z,53.66
2023-02-06T09:53:21.128Z,54.18
2023-02-06T09:56:46.016Z,52.91
2023-02-06T09:59:56.512Z,54.26
2023-02-06T10:03:21.542Z,56.17
2023-02-06T10:06:27.162Z,54.92
2023-02-06T10:09:58.762Z,53.58
2023-02-06T10:13:13.514Z,53.31
2023-02-06T10:16:40.783Z,52.37
2023-02-06T10:20:01.569Z,53.47
2023-02-06T10:23:32.945Z,53.69
2023-02-06T10:26:39.701Z,53.57
2023-02-06T10:29:45.310Z,54.21
2023-02-06T10:32:56.868Z,52.50
2023-02-06T10:36:12.794Z,53.83
2023-02-06T10:39:37.501Z,54.63
2023-02-06T10:43:02.169Z,52.34
2023-02-06T10:46:38.869Z,53.57
2023-02-06T10:49:50.569Z,52.55
2023-02-06T10:52:56.952Z,50.92
2023-02-06T10:56:10.152Z,51.55
2023-02-06T10:59:38.037Z,51.83
2023-02-06T11:03:06.846Z,52.08
2023-02-06T11:06:15.756Z,53.06
2023-02-06T11:09:18.806Z,51.00
2023-02-06T11:12:32.995Z,50.43
2023-02-06T11:15:45.902Z,49.80
2023-02-06T11:18:50.152Z,51.81
2023-02-06T11:22:08.833Z,51.60
2023-02-06T11:25:34.047Z,50.93
2023-02-06T11:28:40.418Z,50.78
2023-02-06T11:31:47.296Z,50.89
2023-02-06T11:35:02.883Z,50.60
2023-02-06T11:38:21.743Z,50.38
2023-02-06T11:41:24.567Z,50.03
2023-02-06T11:44:34.843Z,50.56
2023-02-06T11:47:38.255Z,49.78
2023-02-06T11:50:41.525Z,49.16
2023-02-06T11:54:03.270Z,48.93
2023-02-06T11:57:20.526Z,49.24
2023-02-06T12:00:23.547Z,51.26
2023-02-06T12:03:36.930Z,50.33
2023-02-06T12:06:41.015Z,48.40
2023-02-06T12:09:44.235Z,47.78
2023-02-06T12:13:02.425Z,48.92
2023-02-06T12:16:07.694Z,48.80
2023-02-06T12:19:31.857Z,47.70
2023-02-06T12:22:50.404Z,49.20
2023-02-06T12:26:00.769Z,49.25
2023-02-06T12:29:19.982Z,51.18
2023-02-06T12:32:31.436Z,48.85
2023-02-06T12:35:43.926Z,49.10
2023-02-06T12:38:57.483Z,48.79
2023-02-06T12:42:18.537Z,47.69
2023-02-06T12:45:35.790Z,47.20
2023-02-06T12:49:05.571Z,48.00
2023-02-06T12:52:28.363Z,48.23
2023-02-06T12:55:39.734Z,48.78
2023-02-06T12:58:42.302Z,48.23
2023-02-06T13:01:55.916Z,48.97
2023-02-06T13:05:03.956Z,47.53
2023-02-06T13:08:20.928Z,48.71
2023-02-06T13:11:40.712Z,48.87
2023-02-06T13:14:53.369Z,49.56
2023-02-06T13:17:56.966Z,48.94
2023-02-06T13:21:21.658Z,48.70
2023-02-06T13:24:24.442Z,49.00
2023-02-06T13:27:40.607Z,48.29
2023-02-06T13:30:43.253Z,48.39
2023-02-06T13:33:54.493Z,50.05
2023-02-06T13:37:25.992Z,48.87
2023-02-06T13:40:30.841Z,48.60
2023-02-06T13:43:33.530Z,49.33
2023-02-06T13:47:21.549Z,49.90
2023-02-06T13:50:45.717Z,48.52
2023-02-06T13:53:54.218Z,50.17
2023-02-06T13:57:23.556Z,51.32
2023-02-06T14:00:30.472Z,50.08
2023-02-06T14:03:38.973Z,50.09
2023-02-06T14:06:44.460Z,50.77
2023-02-06T14:10:27.831Z,51.01
2023-02-06T14:13:39.726Z,50.39
2023-02-06T14:17:20.946Z,50.41
2023-02-06T14:20:40.846Z,50.82
2023-02-06T14:23:59.189Z,50.87
2023-02-06T14:27:22.246Z,50.97
2023-02-06T14:30:54.259Z,51.02
2023-02-06T14:34:04.126Z,51.02
2023-02-06T14:37:40.904Z,50.83
2023-02-06T14:40:45.316Z,50.85
2023-02-06T14:43:51.159Z,51.24
2023-02-06T14:46:53.847Z,50.41
2023-02-06T14:49:59.318Z,50.95
2023-02-06T14:53:16.595Z,50.42
2023-02-06T14:56:26.916Z,51.21
2023-02-06T14:59:31.062Z,51.19
2023-02-06T15:02:36.512Z,51.91
2023-02-06T15:05:39.149Z,51.59
2023-02-06T15:08:50.064Z,51.67
2023-02-06T15:11:56.516Z,51.36
2023-02-06T15:15:05.296Z,51.68
2023-02-06T15:18:17.870Z,51.27
2023-02-06T15:21:21.298Z,51.88
2023-02-06T15:24:42.885Z,51.46
2023-02-06T15:27:46.144Z,51.67
2023-02-06T15:31:00.852Z,51.89
2023-02-06T15:34:04.008Z,53.87
2023-02-06T15:37:39.323Z,53.39
2023-02-06T15:40:45.887Z,53.15
2023-02-06T15:43:50.874Z,53.77
2023-02-06T15:46:55.834Z,54.17
2023-02-06T15:50:00.593Z,54.27
2023-02-06T15:53:20.923Z,54.36
2023-02-06T15:56:28.098Z,55.44
2023-02-06T15:59:35.798Z,55.97
2023-02-06T16:02:40.746Z,54.73
2023-02-06T16:05:44.134Z,55.39
2023-02-06T16:08:53.990Z,55.65
2023-02-06T16:11:58.182Z,55.83
2023-02-06T16:15:04.691Z,55.93
2023-02-06T16:18:26.435Z,57.41
2023-02-06T16:21:31.804Z,56.78
2023-02-06T16:24:35.183Z,56.54
2023-02-06T16:27:45.133Z,55.78
2023-02-06T16:31:01.396Z,56.81
2023-02-06T16:34:20.876Z,55.43
2023-02-06T16:37:27.437Z,56.30
2023-02-06T16:40:31.387Z,56.87
2023-02-06T16:43:34.333Z,56.56
2023-02-06T16:46:37.175Z,56.71
2023-02-06T16:49:40.157Z,57.05
2023-02-06T16:52:55.601Z,57.77
2023-02-06T16:55:59.036Z,58.02
2023-02-06T16:59:01.715Z,57.82
2023-02-06T17:02:13.841Z,59.33
2023-02-06T17:05:16.559Z,60.05
2023-02-06T17:08:22.051Z,58.02
2023-02-06T17:11:25.060Z,58.78
2023-02-06T17:14:28.159Z,58.49
2023-02-06T17:17:30.986Z,58.97
2023-02-06T17:20:38.125Z,59.83
2023-02-06T17:23:41.551Z,59.42
2023-02-06T17:26:44.655Z,60.24
2023-02-06T17:29:48.640Z,61.27
2023-02-06T17:32:51.715Z,62.15
2023-02-06T17:35:54.451Z,60.97
2023-02-06T17:38:59.044Z,60.63
2023-02-06T17:42:02.296Z,62.92
2023-02-06T17:45:05.684Z,62.73
2023-02-06T17:48:09.163Z,63.05
2023-02-06T17:51:12.200Z,64.20
2023-02-06T17:54:15.224Z,64.49
2023-02-06T17:57:18.167Z,64.80
2023-02-06T18:00:23.787Z,66.21
2023-02-06T18:03:28.895Z,65.20
2023-02-06T18:06:34.688Z,63.31
2023-02-06T18:09:37.640Z,65.29
2023-02-06T18:12:40.610Z,64.14
2023-02-06T18:15:56.858Z,63.96
2023-02-06T18:18:59.824Z,64.39
2023-02-06T18:22:02.985Z,64.95
2023-02-06T18:25:06.201Z,65.37
2023-02-06T18:28:10.644Z,64.98
2023-02-06T18:31:35.817Z,65.54
2023-02-06T18:34:40.621Z,66.61
2023-02-06T18:37:43.831Z,66.40
2023-02-06T18:40:47.820Z,67.52
2023-02-06T18:43:50.919Z,67.77
2023-02-06T18:46:54.108Z,69.16
2023-02-06T18:49:56.933Z,71.43
2023-02-06T18:53:00.265Z,70.94
2023-02-06T18:56:03.143Z,69.93
2023-02-06T18:59:06.652Z,71.33
2023-02-06T19:02:12.695Z,71.60
2023-02-06T19:05:16.280Z,72.05
2023-02-06T19:08:19.737Z,71.83
2023-02-06T19:11:23.087Z,71.33
2023-02-06T19:14:26.197Z,70.46
2023-02-06T19:17:29.203Z,70.30
2023-02-06T19:20:32.344Z,69.28
2023-02-06T19:23:37.857Z,69.08
2023-02-06T19:26:44.258Z,68.54
2023-02-06T19:29:48.177Z,69.14
2023-02-06T19:32:51.571Z,69.48
2023-02-06T19:35:54.917Z,70.68
2023-02-06T19:39:01.203Z,70.19
2023-02-06T19:42:06.738Z,70.50
2023-02-06T19:45:09.529Z,69.87
2023-02-06T19:48:13.872Z,69.77
2023-02-06T19:51:19.924Z,69.67
2023-02-06T19:54:22.903Z,69.43
2023-02-06T19:57:25.848Z,69.98
2023-02-06T20:00:29.400Z,69.41
2023-02-06T20:03:32.973Z,69.84
2023-02-06T20:06:35.930Z,69.55
2023-02-06T20:09:41.984Z,70.05
2023-02-06T20:12:45.206Z,70.50
2023-02-06T20:15:48.639Z,70.85
2023-02-06T20:18:52.133Z,70.83
2023-02-06T20:21:57.970Z,70.92
2023-02-06T20:25:00.905Z,71.47
2023-02-06T20:28:05.104Z,72.18
2023-02-06T20:31:09.985Z,71.52
2023-02-06T20:34:13.861Z,72.54
2023-02-06T20:37:17.809Z,72.60
2023-02-06T20:40:23.358Z,72.88
2023-02-06T20:43:26.498Z,73.38
2023-02-06T20:46:32.727Z,73.99
2023-02-06T20:49:35.290Z,73.01
2023-02-06T20:52:38.367Z,73.53
2023-02-06T20:55:44.495Z,73.87
2023-02-06T20:58:50.261Z,73.84
2023-02-06T21:01:52.977Z,73.63
2023-02-06T21:04:56.073Z,74.67
2023-02-06T21:07:59.849Z,75.34
2023-02-06T21:11:03.730Z,74.39
2023-02-06T21:14:07.357Z,74.97
2023-02-06T21:17:10.679Z,75.14
2023-02-06T21:20:13.832Z,75.67
2023-02-06T21:23:17.396Z,76.14
2023-02-06T21:26:22.205Z,76.00
2023-02-06T21:29:25.281Z,75.83
2023-02-06T21:32:28.305Z,76.47
2023-02-06T21:35:33.810Z,77.16
2023-02-06T21:38:42.549Z,77.17
2023-02-06T21:41:47.313Z,75.96
2023-02-06T21:44:49.850Z,75.88
2023-02-06T21:47:52.741Z,76.33
2023-02-06T21:50:56.295Z,75.79
2023-02-06T21:53:59.578Z,75.72
2023-02-06T21:57:02.170Z,76.05
2023-02-06T22:00:05.700Z,76.93
2023-02-06T22:03:16.255Z,76.97
2023-02-06T22:06:20.916Z,75.89
2023-02-06T22:09:23.869Z,75.83
2023-02-06T22:12:27.642Z,75.96
2023-02-06T22:15:30.334Z,76.43
2023-02-06T22:18:33.206Z,75.68
2023-02-06T22:21:35.966Z,75.98
2023-02-06T22:24:39.021Z,75.91
2023-02-06T22:27:41.617Z,76.20
2023-02-06T22:30:44.663Z,76.29
2023-02-06T22:33:48.244Z,76.20
2023-02-06T22:36:51.306Z,76.14
2023-02-06T22:39:56.967Z,76.15
2023-02-06T22:43:00.021Z,76.45
2023-02-06T22:46:03.280Z,76.37
2023-02-06T22:49:08.034Z,76.22
2023-02-06T22:52:30.726Z,76.05
2023-02-06T22:55:57.951Z,75.56
2023-02-06T22:59:07.597Z,75.79
2023-02-06T23:02:10.905Z,75.74
2023-02-06T23:05:13.594Z,76.16
2023-02-06T23:08:16.609Z,76.43
2023-02-06T23:11:19.345Z,76.70
2023-02-06T23:14:22.271Z,77.25
2023-02-06T23:17:25.037Z,77.63
2023-02-06T23:20:30.643Z,77.17
2023-02-06T23:23:33.259Z,77.29
2023-02-06T23:26:36.882Z,77.18
2023-02-06T23:29:39.638Z,77.37
2023-02-06T23:32:42.698Z,78.06
2023-02-06T23:35:45.439Z,77.68
2023-02-06T23:38:48.604Z,77.63
2023-02-06T23:41:51.333Z,78.07
2023-02-06T23:44:54.975Z,78.27
2023-02-06T23:47:58.102Z,78.94
2023-02-06T23:51:01.473Z,77.71
2023-02-06T23:54:05.335Z,77.57
2023-02-06T23:57:08.303Z,77.13
